sensor_id;sensor_type;location;lat;lon;timestamp;pressure;altitude;pressure_sealevel;temperature;humidity
75298;BME280;63896;45.990;18.688;2023-09-12T00:01:06;100511.94;;;16.97;100.00
75298;BME280;63896;45.990;18.688;2023-09-12T00:04:10;100514.31;;;16.93;100.00
75298;BME280;63896;45.990;18.688;2023-09-12T00:07:14;100517.44;;;17.12;100.00
75298;BME280;63896;45.990;18.688;2023-09-12T00:10:17;100517.50;;;17.17;100.00
75298;BME280;63896;45.990;18.688;2023-09-12T00:13:19;100513.97;;;17.11;100.00
75298;BME280;63896;45.990;18.688;2023-09-12T00:16:22;100514.25;;;17.15;100.00
75298;BME280;63896;45.990;18.688;2023-09-12T00:19:25;100513.72;;;17.13;100.00
75298;BME280;63896;45.990;18.688;2023-09-12T00:22:28;100509.09;;;17.08;100.00
75298;BME280;63896;45.990;18.688;2023-09-12T00:25:31;100500.75;;;17.05;100.00
75298;BME280;63896;45.990;18.688;2023-09-12T00:28:33;100501.53;;;17.00;100.00
75298;BME280;63896;45.990;18.688;2023-09-12T00:31:37;100500.97;;;16.98;100.00
75298;BME280;63896;45.990;18.688;2023-09-12T00:34:39;100507.16;;;16.99;100.00
75298;BME280;63896;45.990;18.688;2023-09-12T00:37:42;100504.94;;;16.91;100.00
75298;BME280;63896;45.990;18.688;2023-09-12T00:40:45;100508.72;;;16.95;100.00
75298;BME280;63896;45.990;18.688;2023-09-12T00:43:48;100508.97;;;16.93;100.00
75298;BME280;63896;45.990;18.688;2023-09-12T00:46:52;100511.03;;;16.86;100.00
75298;BME280;63896;45.990;18.688;2023-09-12T00:49:58;100509.09;;;16.82;100.00
75298;BME280;63896;45.990;18.688;2023-09-12T00:53:02;100504.19;;;16.74;100.00
75298;BME280;63896;45.990;18.688;2023-09-12T00:56:06;100503.66;;;16.72;100.00
75298;BME280;63896;45.990;18.688;2023-09-12T00:59:10;100503.59;;;16.66;100.00
75298;BME280;63896;45.990;18.688;2023-09-12T01:02:13;100497.66;;;16.64;100.00
75298;BME280;63896;45.990;18.688;2023-09-12T01:05:16;100495.19;;;16.58;100.00
75298;BME280;63896;45.990;18.688;2023-09-12T01:08:19;100498.84;;;16.52;100.00
75298;BME280;63896;45.990;18.688;2023-09-12T01:11:22;100502.25;;;16.47;100.00
75298;BME280;63896;45.990;18.688;2023-09-12T01:14:26;100500.41;;;16.48;100.00
75298;BME280;63896;45.990;18.688;2023-09-12T01:17:29;100499.00;;;16.45;100.00
75298;BME280;63896;45.990;18.688;2023-09-12T01:20:34;100500.41;;;16.48;100.00
75298;BME280;63896;45.990;18.688;2023-09-12T01:30:31;100500.56;;;16.41;100.00
75298;BME280;63896;45.990;18.688;2023-09-12T01:33:35;100497.34;;;16.39;100.00
75298;BME280;63896;45.990;18.688;2023-09-12T01:36:38;100496.53;;;16.39;100.00
75298;BME280;63896;45.990;18.688;2023-09-12T01:39:41;100493.31;;;16.37;100.00
75298;BME280;63896;45.990;18.688;2023-09-12T01:42:46;100496.41;;;16.29;100.00
75298;BME280;63896;45.990;18.688;2023-09-12T01:45:51;100495.28;;;16.25;100.00
75298;BME280;63896;45.990;18.688;2023-09-12T01:48:56;100504.56;;;16.17;100.00
75298;BME280;63896;45.990;18.688;2023-09-12T01:52:00;100501.00;;;16.11;100.00
75298;BME280;63896;45.990;18.688;2023-09-12T01:55:05;100505.06;;;16.14;100.00
75298;BME280;63896;45.990;18.688;2023-09-12T01:58:10;100503.94;;;16.10;100.00
75298;BME280;63896;45.990;18.688;2023-09-12T02:01:14;100498.50;;;16.05;100.00
75298;BME280;63896;45.990;18.688;2023-09-12T02:04:17;100499.25;;;16.00;100.00
75298;BME280;63896;45.990;18.688;2023-09-12T02:07:22;100498.94;;;15.97;100.00
75298;BME280;63896;45.990;18.688;2023-09-12T02:10:26;100496.47;;;15.95;100.00
75298;BME280;63896;45.990;18.688;2023-09-12T02:13:29;100495.81;;;16.05;100.00
75298;BME280;63896;45.990;18.688;2023-09-12T02:16:32;100500.28;;;15.99;100.00
75298;BME280;63896;45.990;18.688;2023-09-12T02:19:35;100500.25;;;15.94;100.00
75298;BME280;63896;45.990;18.688;2023-09-12T02:22:38;100498.28;;;15.90;100.00
75298;BME280;63896;45.990;18.688;2023-09-12T02:25:41;100500.88;;;15.85;100.00
75298;BME280;63896;45.990;18.688;2023-09-12T02:28:45;100497.97;;;15.86;100.00
75298;BME280;63896;45.990;18.688;2023-09-12T02:31:48;100496.13;;;15.87;100.00
75298;BME280;63896;45.990;18.688;2023-09-12T02:34:51;100495.47;;;15.80;100.00
75298;BME280;63896;45.990;18.688;2023-09-12T02:37:55;100510.22;;;15.82;100.00
75298;BME280;63896;45.990;18.688;2023-09-12T02:40:58;100502.34;;;15.76;100.00
75298;BME280;63896;45.990;18.688;2023-09-12T02:44:01;100502.34;;;15.76;100.00
75298;BME280;63896;45.990;18.688;2023-09-12T02:47:04;100506.50;;;15.66;100.00
75298;BME280;63896;45.990;18.688;2023-09-12T02:50:09;100509.09;;;15.61;100.00
75298;BME280;63896;45.990;18.688;2023-09-12T02:53:12;100507.97;;;15.57;100.00
75298;BME280;63896;45.990;18.688;2023-09-12T02:56:15;100514.63;;;15.55;100.00
75298;BME280;63896;45.990;18.688;2023-09-12T02:59:17;100516.16;;;15.51;100.00
75298;BME280;63896;45.990;18.688;2023-09-12T03:02:21;100512.88;;;15.49;100.00
75298;BME280;63896;45.990;18.688;2023-09-12T03:05:24;100512.09;;;15.48;100.00
75298;BME280;63896;45.990;18.688;2023-09-12T03:08:28;100510.41;;;15.59;100.00
75298;BME280;63896;45.990;18.688;2023-09-12T03:11:31;100510.56;;;15.69;100.00
75298;BME280;63896;45.990;18.688;2023-09-12T03:14:33;100511.38;;;15.69;100.00
75298;BME280;63896;45.990;18.688;2023-09-12T03:17:36;100507.38;;;15.72;100.00
75298;BME280;63896;45.990;18.688;2023-09-12T03:20:40;100517.31;;;15.71;100.00
75298;BME280;63896;45.990;18.688;2023-09-12T03:23:43;100521.50;;;15.67;100.00
75298;BME280;63896;45.990;18.688;2023-09-12T03:26:45;100518.75;;;15.62;100.00
75298;BME280;63896;45.990;18.688;2023-09-12T03:29:49;100516.88;;;15.63;100.00
75298;BME280;63896;45.990;18.688;2023-09-12T03:32:51;100523.47;;;15.55;100.00
75298;BME280;63896;45.990;18.688;2023-09-12T03:35:55;100526.19;;;15.60;100.00
75298;BME280;63896;45.990;18.688;2023-09-12T03:38:57;100532.44;;;15.49;100.00
75298;BME280;63896;45.990;18.688;2023-09-12T03:42:00;100543.03;;;15.44;100.00
75298;BME280;63896;45.990;18.688;2023-09-12T03:45:04;100538.16;;;15.41;100.00
75298;BME280;63896;45.990;18.688;2023-09-12T03:48:08;100537.28;;;15.36;100.00
75298;BME280;63896;45.990;18.688;2023-09-12T03:51:11;100529.97;;;15.31;100.00
75298;BME280;63896;45.990;18.688;2023-09-12T03:54:14;100534.19;;;15.27;100.00
75298;BME280;63896;45.990;18.688;2023-09-12T03:57:17;100534.75;;;15.29;100.00
75298;BME280;63896;45.990;18.688;2023-09-12T04:00:20;100533.34;;;15.26;100.00
75298;BME280;63896;45.990;18.688;2023-09-12T04:03:24;100528.00;;;15.26;100.00
75298;BME280;63896;45.990;18.688;2023-09-12T04:06:27;100526.00;;;15.17;100.00
75298;BME280;63896;45.990;18.688;2023-09-12T04:09:30;100536.69;;;15.17;100.00
75298;BME280;63896;45.990;18.688;2023-09-12T04:12:34;100530.03;;;15.19;100.00
75298;BME280;63896;45.990;18.688;2023-09-12T04:15:37;100534.56;;;15.19;100.00
75298;BME280;63896;45.990;18.688;2023-09-12T04:18:40;100534.81;;;15.17;100.00
75298;BME280;63896;45.990;18.688;2023-09-12T04:21:43;100542.03;;;15.17;100.00
75298;BME280;63896;45.990;18.688;2023-09-12T04:24:46;100537.72;;;15.16;100.00
75298;BME280;63896;45.990;18.688;2023-09-12T04:27:49;100546.56;;;15.16;100.00
75298;BME280;63896;45.990;18.688;2023-09-12T04:31:00;100551.41;;;15.19;100.00
75298;BME280;63896;45.990;18.688;2023-09-12T04:34:04;100545.50;;;15.17;100.00
75298;BME280;63896;45.990;18.688;2023-09-12T04:37:07;100551.66;;;15.18;100.00
75298;BME280;63896;45.990;18.688;2023-09-12T04:40:10;100548.75;;;15.19;100.00
75298;BME280;63896;45.990;18.688;2023-09-12T04:43:13;100553.53;;;15.17;100.00
75298;BME280;63896;45.990;18.688;2023-09-12T04:46:16;100549.31;;;15.21;100.00
75298;BME280;63896;45.990;18.688;2023-09-12T04:49:19;100558.72;;;15.24;100.00
75298;BME280;63896;45.990;18.688;2023-09-12T04:52:22;100563.75;;;15.37;100.00
75298;BME280;63896;45.990;18.688;2023-09-12T04:55:25;100560.63;;;15.40;100.00
75298;BME280;63896;45.990;18.688;2023-09-12T04:58:28;100563.34;;;15.45;100.00
75298;BME280;63896;45.990;18.688;2023-09-12T05:01:31;100565.56;;;15.48;100.00
75298;BME280;63896;45.990;18.688;2023-09-12T05:04:34;100571.81;;;15.54;100.00
75298;BME280;63896;45.990;18.688;2023-09-12T05:07:37;100569.25;;;15.59;100.00
75298;BME280;63896;45.990;18.688;2023-09-12T05:10:40;100568.53;;;15.63;100.00
75298;BME280;63896;45.990;18.688;2023-09-12T05:13:43;100565.78;;;15.75;100.00
75298;BME280;63896;45.990;18.688;2023-09-12T05:16:46;100569.91;;;15.83;100.00
75298;BME280;63896;45.990;18.688;2023-09-12T05:19:49;100575.63;;;15.91;100.00
75298;BME280;63896;45.990;18.688;2023-09-12T05:22:52;100578.81;;;16.05;100.00
75298;BME280;63896;45.990;18.688;2023-09-12T05:25:55;100576.25;;;16.15;100.00
75298;BME280;63896;45.990;18.688;2023-09-12T05:28:57;100575.34;;;16.26;100.00
75298;BME280;63896;45.990;18.688;2023-09-12T05:32:01;100575.00;;;16.39;100.00
75298;BME280;63896;45.990;18.688;2023-09-12T05:35:04;100575.31;;;16.59;100.00
75298;BME280;63896;45.990;18.688;2023-09-12T05:38:23;100574.16;;;16.77;100.00
75298;BME280;63896;45.990;18.688;2023-09-12T05:41:26;100577.97;;;17.03;100.00
75298;BME280;63896;45.990;18.688;2023-09-12T05:44:29;100583.34;;;17.30;100.00
75298;BME280;63896;45.990;18.688;2023-09-12T05:47:33;100586.19;;;17.50;100.00
75298;BME280;63896;45.990;18.688;2023-09-12T05:50:37;100585.63;;;17.75;100.00
75298;BME280;63896;45.990;18.688;2023-09-12T05:53:40;100586.91;;;17.99;99.32
75298;BME280;63896;45.990;18.688;2023-09-12T05:56:42;100579.03;;;18.29;97.31
75298;BME280;63896;45.990;18.688;2023-09-12T05:59:45;100577.09;;;18.67;95.65
75298;BME280;63896;45.990;18.688;2023-09-12T06:02:48;100583.47;;;19.28;91.85
75298;BME280;63896;45.990;18.688;2023-09-12T06:05:52;100584.81;;;20.26;86.16
75298;BME280;63896;45.990;18.688;2023-09-12T06:08:55;100581.53;;;21.19;80.68
75298;BME280;63896;45.990;18.688;2023-09-12T06:11:58;100582.06;;;21.89;77.80
75298;BME280;63896;45.990;18.688;2023-09-12T06:15:01;100582.91;;;22.42;74.38
75298;BME280;63896;45.990;18.688;2023-09-12T06:18:04;100586.28;;;22.52;71.15
75298;BME280;63896;45.990;18.688;2023-09-12T06:21:07;100573.19;;;23.44;69.31
75298;BME280;63896;45.990;18.688;2023-09-12T06:24:36;100574.03;;;24.50;64.35
75298;BME280;63896;45.990;18.688;2023-09-12T06:27:41;100573.19;;;24.91;61.57
75298;BME280;63896;45.990;18.688;2023-09-12T06:30:44;100565.41;;;25.25;60.50
75298;BME280;63896;45.990;18.688;2023-09-12T06:33:47;100575.16;;;24.90;60.05
75298;BME280;63896;45.990;18.688;2023-09-12T06:36:50;100581.97;;;25.82;58.73
75298;BME280;63896;45.990;18.688;2023-09-12T06:39:53;100586.91;;;26.33;57.25
75298;BME280;63896;45.990;18.688;2023-09-12T06:42:56;100586.56;;;26.82;55.11
75298;BME280;63896;45.990;18.688;2023-09-12T06:45:59;100585.50;;;27.09;53.68
75298;BME280;63896;45.990;18.688;2023-09-12T06:49:02;100574.63;;;27.35;52.60
75298;BME280;63896;45.990;18.688;2023-09-12T06:52:06;100577.31;;;27.86;50.29
75298;BME280;63896;45.990;18.688;2023-09-12T06:55:09;100575.97;;;28.18;47.82
75298;BME280;63896;45.990;18.688;2023-09-12T06:58:12;100572.13;;;28.78;46.05
75298;BME280;63896;45.990;18.688;2023-09-12T07:01:15;100577.19;;;29.71;43.67
75298;BME280;63896;45.990;18.688;2023-09-12T07:04:18;100578.91;;;30.33;42.55
75298;BME280;63896;45.990;18.688;2023-09-12T07:07:22;100579.97;;;31.01;40.78
75298;BME280;63896;45.990;18.688;2023-09-12T07:10:25;100577.81;;;30.46;42.21
75298;BME280;63896;45.990;18.688;2023-09-12T07:13:28;100577.66;;;30.18;42.53
75298;BME280;63896;45.990;18.688;2023-09-12T07:16:32;100574.06;;;32.29;37.40
75298;BME280;63896;45.990;18.688;2023-09-12T07:19:35;100572.47;;;32.94;35.12
75298;BME280;63896;45.990;18.688;2023-09-12T07:22:39;100577.41;;;32.85;35.36
75298;BME280;63896;45.990;18.688;2023-09-12T07:25:43;100564.97;;;33.68;34.15
75298;BME280;63896;45.990;18.688;2023-09-12T07:28:49;100566.38;;;32.66;36.15
75298;BME280;63896;45.990;18.688;2023-09-12T07:31:53;100567.31;;;34.61;31.55
75298;BME280;63896;45.990;18.688;2023-09-12T07:34:58;100559.38;;;34.29;30.90
75298;BME280;63896;45.990;18.688;2023-09-12T07:38:01;100568.75;;;34.25;31.78
75298;BME280;63896;45.990;18.688;2023-09-12T07:41:05;100571.72;;;33.51;32.45
75298;BME280;63896;45.990;18.688;2023-09-12T07:44:08;100568.56;;;34.89;30.50
75298;BME280;63896;45.990;18.688;2023-09-12T07:47:14;100567.47;;;35.98;29.16
75298;BME280;63896;45.990;18.688;2023-09-12T07:50:17;100574.66;;;34.50;30.46
75298;BME280;63896;45.990;18.688;2023-09-12T07:53:21;100558.94;;;35.06;29.71
75298;BME280;63896;45.990;18.688;2023-09-12T07:56:25;100561.41;;;35.15;30.78
75298;BME280;63896;45.990;18.688;2023-09-12T07:59:27;100565.44;;;35.54;28.90
75298;BME280;63896;45.990;18.688;2023-09-12T08:02:30;100566.47;;;34.30;31.38
75298;BME280;63896;45.990;18.688;2023-09-12T08:05:33;100566.94;;;35.85;29.19
75298;BME280;63896;45.990;18.688;2023-09-12T08:12:28;100568.00;;;36.10;29.48
75298;BME280;63896;45.990;18.688;2023-09-12T08:15:32;100562.09;;;36.12;29.76
75298;BME280;63896;45.990;18.688;2023-09-12T08:18:36;100573.34;;;36.98;28.85
75298;BME280;63896;45.990;18.688;2023-09-12T08:21:39;100572.88;;;36.27;29.62
75298;BME280;63896;45.990;18.688;2023-09-12T08:24:42;100573.03;;;36.01;29.11
75298;BME280;63896;45.990;18.688;2023-09-12T08:27:45;100570.06;;;36.75;26.95
75298;BME280;63896;45.990;18.688;2023-09-12T08:30:48;100560.91;;;34.27;29.55
75298;BME280;63896;45.990;18.688;2023-09-12T08:33:51;100567.66;;;35.12;29.79
75298;BME280;63896;45.990;18.688;2023-09-12T08:36:54;100568.31;;;36.05;28.72
75298;BME280;63896;45.990;18.688;2023-09-12T08:39:58;100561.31;;;36.66;27.56
75298;BME280;63896;45.990;18.688;2023-09-12T08:43:02;100564.09;;;36.69;27.82
75298;BME280;63896;45.990;18.688;2023-09-12T08:46:06;100557.09;;;38.11;26.40
75298;BME280;63896;45.990;18.688;2023-09-12T08:49:09;100561.91;;;35.94;28.34
75298;BME280;63896;45.990;18.688;2023-09-12T08:52:13;100557.88;;;35.84;29.33
75298;BME280;63896;45.990;18.688;2023-09-12T08:55:16;100559.50;;;36.91;27.95
75298;BME280;63896;45.990;18.688;2023-09-12T08:58:20;100545.50;;;38.66;26.01
75298;BME280;63896;45.990;18.688;2023-09-12T09:01:23;100557.53;;;35.90;28.77
75298;BME280;63896;45.990;18.688;2023-09-12T09:04:30;100557.28;;;37.25;26.55
75298;BME280;63896;45.990;18.688;2023-09-12T09:07:35;100559.91;;;36.97;27.66
75298;BME280;63896;45.990;18.688;2023-09-12T09:11:06;100564.22;;;36.29;27.98
75298;BME280;63896;45.990;18.688;2023-09-12T09:14:09;100561.81;;;35.13;30.10
75298;BME280;63896;45.990;18.688;2023-09-12T09:17:12;100561.16;;;36.45;28.55
75298;BME280;63896;45.990;18.688;2023-09-12T09:20:36;100560.59;;;35.44;30.21
75298;BME280;63896;45.990;18.688;2023-09-12T09:23:45;100561.03;;;35.83;29.70
75298;BME280;63896;45.990;18.688;2023-09-12T09:26:51;100560.06;;;37.29;27.61
75298;BME280;63896;45.990;18.688;2023-09-12T09:29:54;100558.63;;;37.88;26.36
75298;BME280;63896;45.990;18.688;2023-09-12T09:32:57;100561.38;;;38.62;24.82
75298;BME280;63896;45.990;18.688;2023-09-12T09:36:04;100552.13;;;39.84;24.57
75298;BME280;63896;45.990;18.688;2023-09-12T09:39:12;100559.13;;;39.44;24.02
75298;BME280;63896;45.990;18.688;2023-09-12T09:43:30;100546.63;;;41.03;23.00
75298;BME280;63896;45.990;18.688;2023-09-12T09:46:37;100552.75;;;40.87;23.24
75298;BME280;63896;45.990;18.688;2023-09-12T09:49:41;100543.88;;;42.53;20.74
75298;BME280;63896;45.990;18.688;2023-09-12T09:52:53;100547.91;;;40.17;23.65
75298;BME280;63896;45.990;18.688;2023-09-12T09:56:13;100549.19;;;40.02;23.71
75298;BME280;63896;45.990;18.688;2023-09-12T09:59:19;100536.72;;;39.76;24.27
75298;BME280;63896;45.990;18.688;2023-09-12T10:02:25;100531.75;;;41.13;22.88
75298;BME280;63896;45.990;18.688;2023-09-12T10:05:31;100536.53;;;40.01;22.65
75298;BME280;63896;45.990;18.688;2023-09-12T10:08:35;100530.50;;;41.98;20.13
75298;BME280;63896;45.990;18.688;2023-09-12T10:11:41;100535.16;;;41.28;22.83
75298;BME280;63896;45.990;18.688;2023-09-12T10:14:45;100523.03;;;42.38;21.19
75298;BME280;63896;45.990;18.688;2023-09-12T10:17:57;100520.22;;;40.47;22.79
75298;BME280;63896;45.990;18.688;2023-09-12T10:21:10;100522.97;;;42.18;19.57
75298;BME280;63896;45.990;18.688;2023-09-12T10:24:19;100512.69;;;43.17;18.02
75298;BME280;63896;45.990;18.688;2023-09-12T10:27:24;100512.88;;;43.95;17.70
75298;BME280;63896;45.990;18.688;2023-09-12T10:30:29;100511.06;;;44.33;17.47
75298;BME280;63896;45.990;18.688;2023-09-12T10:33:33;100507.94;;;44.73;15.91
75298;BME280;63896;45.990;18.688;2023-09-12T10:36:40;100507.13;;;44.60;15.85
75298;BME280;63896;45.990;18.688;2023-09-12T10:39:43;100505.25;;;45.36;16.78
75298;BME280;63896;45.990;18.688;2023-09-12T10:42:47;100502.31;;;41.69;19.70
75298;BME280;63896;45.990;18.688;2023-09-12T10:45:54;100502.13;;;43.25;19.02
75298;BME280;63896;45.990;18.688;2023-09-12T10:49:05;100500.06;;;42.07;19.20
75298;BME280;63896;45.990;18.688;2023-09-12T10:52:08;100506.50;;;40.97;21.20
75298;BME280;63896;45.990;18.688;2023-09-12T10:55:16;100492.22;;;41.52;20.91
75298;BME280;63896;45.990;18.688;2023-09-12T10:58:22;100500.94;;;42.27;19.99
75298;BME280;63896;45.990;18.688;2023-09-12T11:01:25;100485.97;;;42.38;19.02
75298;BME280;63896;45.990;18.688;2023-09-12T11:10:43;100488.53;;;39.41;22.56
75298;BME280;63896;45.990;18.688;2023-09-12T11:14:03;100490.00;;;38.77;23.89
75298;BME280;63896;45.990;18.688;2023-09-12T11:20:10;100479.19;;;39.07;23.21
75298;BME280;63896;45.990;18.688;2023-09-12T11:23:13;100483.13;;;39.10;22.66
75298;BME280;63896;45.990;18.688;2023-09-12T11:26:16;100477.50;;;40.64;20.46
75298;BME280;63896;45.990;18.688;2023-09-12T11:29:20;100471.19;;;39.13;21.79
75298;BME280;63896;45.990;18.688;2023-09-12T11:32:32;100481.06;;;39.31;22.37
75298;BME280;63896;45.990;18.688;2023-09-12T11:35:37;100475.41;;;38.58;23.38
75298;BME280;63896;45.990;18.688;2023-09-12T11:38:43;100472.84;;;40.13;20.97
75298;BME280;63896;45.990;18.688;2023-09-12T11:41:46;100468.59;;;38.77;23.02
75298;BME280;63896;45.990;18.688;2023-09-12T11:44:51;100474.31;;;38.06;23.22
75298;BME280;63896;45.990;18.688;2023-09-12T11:47:54;100466.75;;;37.47;24.07
75298;BME280;63896;45.990;18.688;2023-09-12T11:50:57;100464.66;;;38.71;23.23
75298;BME280;63896;45.990;18.688;2023-09-12T11:54:00;100460.97;;;39.02;22.74
75298;BME280;63896;45.990;18.688;2023-09-12T11:57:03;100450.59;;;40.13;21.92
75298;BME280;63896;45.990;18.688;2023-09-12T12:00:11;100446.44;;;41.53;19.75
75298;BME280;63896;45.990;18.688;2023-09-12T12:03:14;100444.28;;;40.80;20.55
75298;BME280;63896;45.990;18.688;2023-09-12T12:06:18;100447.47;;;41.36;19.64
75298;BME280;63896;45.990;18.688;2023-09-12T12:09:21;100444.97;;;41.92;19.08
75298;BME280;63896;45.990;18.688;2023-09-12T12:12:24;100435.47;;;40.85;19.57
75298;BME280;63896;45.990;18.688;2023-09-12T12:15:28;100439.97;;;42.46;18.42
75298;BME280;63896;45.990;18.688;2023-09-12T12:18:31;100430.34;;;42.07;19.12
75298;BME280;63896;45.990;18.688;2023-09-12T12:21:34;100435.59;;;40.04;20.52
75298;BME280;63896;45.990;18.688;2023-09-12T12:24:40;100435.16;;;39.64;21.27
75298;BME280;63896;45.990;18.688;2023-09-12T12:27:43;100429.31;;;38.89;22.33
75298;BME280;63896;45.990;18.688;2023-09-12T12:30:51;100422.09;;;40.43;20.30
75298;BME280;63896;45.990;18.688;2023-09-12T12:33:56;100425.03;;;38.67;22.44
75298;BME280;63896;45.990;18.688;2023-09-12T12:37:19;100412.44;;;40.17;20.14
75298;BME280;63896;45.990;18.688;2023-09-12T12:40:22;100414.81;;;39.30;21.39
75298;BME280;63896;45.990;18.688;2023-09-12T12:43:26;100400.31;;;40.68;20.30
75298;BME280;63896;45.990;18.688;2023-09-12T12:46:30;100405.94;;;40.31;20.24
75298;BME280;63896;45.990;18.688;2023-09-12T12:49:37;100401.31;;;40.14;20.81
75298;BME280;63896;45.990;18.688;2023-09-12T12:52:47;100407.88;;;40.34;20.29
75298;BME280;63896;45.990;18.688;2023-09-12T12:55:50;100402.41;;;40.61;19.97
75298;BME280;63896;45.990;18.688;2023-09-12T12:58:58;100402.38;;;41.18;19.05
75298;BME280;63896;45.990;18.688;2023-09-12T13:02:01;100392.38;;;39.55;20.74
75298;BME280;63896;45.990;18.688;2023-09-12T13:05:18;100388.16;;;40.85;19.81
75298;BME280;63896;45.990;18.688;2023-09-12T13:08:21;100387.81;;;40.19;20.44
75298;BME280;63896;45.990;18.688;2023-09-12T13:11:24;100382.53;;;39.91;20.74
75298;BME280;63896;45.990;18.688;2023-09-12T13:14:27;100379.56;;;39.68;20.52
75298;BME280;63896;45.990;18.688;2023-09-12T13:17:33;100371.84;;;37.57;22.77
75298;BME280;63896;45.990;18.688;2023-09-12T13:20:36;100376.97;;;37.76;23.19
75298;BME280;63896;45.990;18.688;2023-09-12T13:23:39;100373.78;;;37.35;23.23
75298;BME280;63896;45.990;18.688;2023-09-12T13:26:43;100370.19;;;38.05;22.54
75298;BME280;63896;45.990;18.688;2023-09-12T13:29:46;100366.25;;;37.78;23.35
75298;BME280;63896;45.990;18.688;2023-09-12T13:32:50;100362.63;;;36.71;23.84
75298;BME280;63896;45.990;18.688;2023-09-12T13:35:53;100350.44;;;37.75;22.75
75298;BME280;63896;45.990;18.688;2023-09-12T13:38:56;100356.63;;;38.29;22.07
75298;BME280;63896;45.990;18.688;2023-09-12T13:41:59;100362.72;;;37.74;23.52
75298;BME280;63896;45.990;18.688;2023-09-12T13:45:06;100357.56;;;37.19;24.09
75298;BME280;63896;45.990;18.688;2023-09-12T13:48:10;100354.84;;;39.36;21.65
75298;BME280;63896;45.990;18.688;2023-09-12T13:51:14;100357.28;;;38.65;21.79
75298;BME280;63896;45.990;18.688;2023-09-12T13:54:18;100351.88;;;38.29;22.18
75298;BME280;63896;45.990;18.688;2023-09-12T13:57:21;100347.63;;;38.03;22.00
75298;BME280;63896;45.990;18.688;2023-09-12T14:00:24;100342.78;;;38.25;22.24
75298;BME280;63896;45.990;18.688;2023-09-12T14:03:37;100351.63;;;38.86;21.73
75298;BME280;63896;45.990;18.688;2023-09-12T14:06:41;100346.50;;;37.19;23.25
75298;BME280;63896;45.990;18.688;2023-09-12T14:09:44;100346.84;;;36.86;23.68
75298;BME280;63896;45.990;18.688;2023-09-12T14:12:47;100351.13;;;36.62;24.43
75298;BME280;63896;45.990;18.688;2023-09-12T14:15:50;100343.66;;;37.94;22.32
75298;BME280;63896;45.990;18.688;2023-09-12T14:18:54;100349.09;;;36.52;24.67
75298;BME280;63896;45.990;18.688;2023-09-12T14:21:57;100340.13;;;37.97;22.93
75298;BME280;63896;45.990;18.688;2023-09-12T14:25:01;100339.00;;;37.59;23.30
75298;BME280;63896;45.990;18.688;2023-09-12T14:28:04;100338.78;;;36.42;24.77
75298;BME280;63896;45.990;18.688;2023-09-12T14:31:07;100347.25;;;35.03;26.42
75298;BME280;63896;45.990;18.688;2023-09-12T14:34:16;100350.06;;;34.36;27.75
75298;BME280;63896;45.990;18.688;2023-09-12T14:37:19;100348.47;;;33.30;28.81
75298;BME280;63896;45.990;18.688;2023-09-12T14:40:26;100345.09;;;33.18;29.93
75298;BME280;63896;45.990;18.688;2023-09-12T14:43:30;100344.03;;;33.03;30.55
75298;BME280;63896;45.990;18.688;2023-09-12T14:46:33;100337.31;;;32.78;30.35
75298;BME280;63896;45.990;18.688;2023-09-12T14:49:36;100343.66;;;32.82;30.38
75298;BME280;63896;45.990;18.688;2023-09-12T14:52:50;100343.59;;;32.40;31.45
75298;BME280;63896;45.990;18.688;2023-09-12T14:55:53;100350.50;;;32.91;30.40
75298;BME280;63896;45.990;18.688;2023-09-12T14:58:56;100348.53;;;32.69;31.14
75298;BME280;63896;45.990;18.688;2023-09-12T15:01:59;100343.66;;;32.82;30.70
75298;BME280;63896;45.990;18.688;2023-09-12T15:05:02;100350.03;;;32.28;31.56
75298;BME280;63896;45.990;18.688;2023-09-12T15:08:06;100343.94;;;32.19;30.91
75298;BME280;63896;45.990;18.688;2023-09-12T15:11:34;100351.06;;;32.04;30.60
75298;BME280;63896;45.990;18.688;2023-09-12T15:14:37;100348.78;;;31.91;31.54
75298;BME280;63896;45.990;18.688;2023-09-12T15:17:40;100345.56;;;31.70;32.00
75298;BME280;63896;45.990;18.688;2023-09-12T15:20:43;100352.44;;;31.79;31.78
75298;BME280;63896;45.990;18.688;2023-09-12T15:23:46;100345.94;;;31.87;31.42
75298;BME280;63896;45.990;18.688;2023-09-12T15:26:49;100344.69;;;31.65;31.46
75298;BME280;63896;45.990;18.688;2023-09-12T15:29:51;100344.31;;;31.36;31.80
75298;BME280;63896;45.990;18.688;2023-09-12T15:32:54;100346.88;;;31.29;31.65
75298;BME280;63896;45.990;18.688;2023-09-12T15:35:57;100351.75;;;31.35;31.30
75298;BME280;63896;45.990;18.688;2023-09-12T15:39:00;100345.97;;;31.09;31.10
75298;BME280;63896;45.990;18.688;2023-09-12T15:42:03;100348.91;;;31.00;30.86
75298;BME280;63896;45.990;18.688;2023-09-12T15:45:07;100353.34;;;31.05;30.59
75298;BME280;63896;45.990;18.688;2023-09-12T15:48:12;100346.00;;;30.81;31.30
75298;BME280;63896;45.990;18.688;2023-09-12T15:51:16;100346.44;;;30.83;32.29
75298;BME280;63896;45.990;18.688;2023-09-12T15:54:20;100347.25;;;30.84;32.70
75298;BME280;63896;45.990;18.688;2023-09-12T15:57:23;100353.78;;;30.79;33.81
75298;BME280;63896;45.990;18.688;2023-09-12T16:00:26;100348.91;;;30.33;37.46
75298;BME280;63896;45.990;18.688;2023-09-12T16:03:29;100346.94;;;30.05;38.50
75298;BME280;63896;45.990;18.688;2023-09-12T16:06:32;100345.25;;;29.76;39.86